You are not logged in, Click here to log in
溫貝托·德爾加多機場 LIS / LPPT 葡萄牙首都里斯本-市郊的波爾特拉
ICAO: LPPT Country: 葡萄牙首都里斯本-市郊的波爾特拉
Latitude: 38.7756 Longitude: -9.13537
Total Arrivals: 11 Total Departures: 15
Latest Arrival: FS23 (LEMD-LPPT)ALAN. LIU Latest Departure: TP948 (LPPT-LSGG)ALAN. LIU
Scenery:
METAR : LPPT 131000Z 29009KT 260V320 9999 FEW010 BKN030 14/13 Q1025

溫貝托·德爾加多機場 LIS

You are accessing this site from IP address 100.26.176.182. Virtual Airline. CMS by phpVMS.Website designed by Zumeweb and edited by Theo Bearman.
There is 0 User(s) Online: | and 13 Guest(s) Online.
All information on this site is for fight simulation purposes only. This site is for flight logging for pilots of Virtual Airline&模擬飛行論壇 FlySim only.